Daglege Rapportar

Klikk her for oppdatering!


Detaljar i dag

22/5/18
Time         Wind Dir   Wind Spd  Wind Gust   Humidity       Temp  Raw Barom   Tot Rain Temp Out H Temp Out L  DailyRain   HourRain
                            mps        mps          %         C         mb         mm         C         C         mm         mm
0:00                0          0          0         46       16.8    1012.04    1255.00       16.8       16.8       0.00       0.00

 


Detaljar i gr

21/5/18
Time         Wind Dir   Wind Spd  Wind Gust   Humidity       Temp  Raw Barom   Tot Rain Temp Out H Temp Out L  DailyRain   HourRain
                            mps        mps          %         C         mb         mm         C         C         mm         mm
0:00                0          0          0         39       16.3    1014.04    1255.00       16.3       16.3       0.00       0.00
1:00                0          0          0         39       16.3    1014.04    1255.00       16.3       16.3       0.00       0.00
2:00                0          0          0         39       16.3    1014.04    1255.00       16.3       16.3       0.00       0.00
3:00                0          0          0         54       13.1    1015.04    1255.00       16.3       13.1       0.00       0.00
4:00                0          0          0         54       13.1    1015.04    1255.00       16.3       13.1       0.00       0.00
5:00                0          0          0         64       11.7    1015.04    1255.00       16.3       11.5       0.00       0.00
6:00                0          0          0         65       11.7    1015.04    1255.00       16.3       11.5       0.00       0.00
7:00                0          0          0         65       11.7    1016.04    1255.00       16.3       11.5       0.00       0.00
8:00                0          0          0         55       15.0    1016.04    1255.00       16.3       11.5       0.00       0.00
9:00                0          0          0         53       15.8    1016.04    1255.00       16.3       11.5       0.00       0.00
10:00               0          0          0         53       15.8    1016.04    1255.00       16.3       11.5       0.00       0.00
11:00               0          0          0         53       15.8    1015.04    1255.00       16.3       11.5       0.00       0.00
12:00               0          0          0         53       15.8    1015.04    1255.00       16.3       11.5       0.00       0.00
13:00               0          0          0         53       15.8    1014.04    1255.00       16.3       11.5       0.00       0.00
14:00               0          0          0         53       15.8    1014.04    1255.00       16.3       11.5       0.00       0.00
15:00               0          0          0         53       15.8    1014.04    1255.00       16.3       11.5       0.00       0.00
16:00               0          0          0         53       15.8    1013.04    1255.00       16.3       11.5       0.00       0.00
17:00               0          0          0         53       15.8    1012.04    1255.00       16.3       11.5       0.00       0.00
18:00               0          0          0         53       15.8    1012.04    1255.00       16.3       11.5       0.00       0.00
19:00               0          0          0         53       15.8    1011.04    1255.00       16.3       11.5       0.00       0.00
20:00               0          0          0         53       15.8    1011.04    1255.00       16.3       11.5       0.00       0.00
21:00               0          0          0         43       18.7    1011.04    1255.00       19.1       11.5       0.00       0.00
22:00               0          0          0         44       17.2    1011.04    1255.00       19.1       11.5       0.00       0.00
23:00               0          0          0         45       17.0    1012.04    1255.00       19.1       11.5       0.00       0.00